Pagrindinis puslapis
METAR-TAF:

METAR-TAF

Oro uostai :

Rojetas, Tailandas

platuma: 16-07-00N, ilguma: 103-46-26E, Aukštis: 138 m

Dabartinis oras

Ataskaita buvo paskelbta 49 minutes, ne 14:00 UTC
Vėjas 6 kt iš Rytų/Pietryčių
Temperatūra 26°C
Drėgmė 94%
Slėgis 1008 hPa
Matomumas: 8000 m
Mažai debesys ne aukštis 2000 ft, Liūtiniai kamuoliniai debesys.
Išsisklaidę debesys ne aukštis 3000 ft
Su prošvaistėmis ne aukštis 10000 ft
perkūnija, lietus

METAR: VTUV 291400Z 11006KT 8000 -TSRA FEW020CB SCT030 BKN100 26/25 Q1008 NOSIG

Laikas: 21:49 (14:49 UTC)

Prognozė

Ataskaita buvo paskelbta 3 valandos ir 49 minutes, ne 11:00 UTC
Prognozė galioja nuo 29 metu 12 UTC su 30 metu 12 UTC
Vėjas 5 kt iš Vakarų
Matomumas: 9000 m
Išsisklaidę debesys ne aukštis 3000 ft
Laikinai
nuo 29 metu 12 UTC su 29 metu 15 UTC
Vėjas 15 kt nuo kintamojo kryptimis
Matomumas: 4500 m
Mažai debesys ne aukštis 1800 ft, Liūtiniai kamuoliniai debesys.
Su prošvaistėmis ne aukštis 2500 ft
perkūnija, lietus

TAF: VTUV 291100Z 2912/3012 26005KT 9000 SCT030 TEMPO 2912/2915 VRB15KT 4500 TSRA FEW018CB BKN025

Orai ataskaitas ir orų prognozės (METAR, TAF).

turimą stotys yra geltonos ir raudonos taškus žemėlapyje.

Perkelti pele per norėdami pamatyti stoties vardą.

Tada spustelėkite, norėdami matyti oro stebėjimo ir prognozės.

Norėdami pakeisti žemėlapį: spustelėkite ant žalios mygtukų su juodo kryžiaus žemyn,; žalią mygtuką su brūkšneliu, jei norite nutolinti; arba žalių rodyklių gretimoms žemėlapius.


METAR-TAF: